Terminal Aerodrome Forecast
Issued by NWS

Home | Current Version | Previous Version | Text Only | Print | Product List | Glossary Off
Versions: 1 2 3 4 5 6 7 8 9 10 11 12 13 14 15 16 17 18 19 20 21 22 23 24 25 26 27 28 29 30 31

655
FTUS43 KBIS 240326 AAC
TAFDIK
TAF AMD
KDIK 240326Z 2403/2424 07010KT 1/4SM -SHRA FG VCTS OVC002CB
      TEMPO 2404/2408 VRB15KT 1/2SM TSRA FG BKN003 OVC005CB
     FM240800 VRB05KT 1/2SM FG VCSH OVC002
     FM241400 23005KT 4SM BR OVC008
     FM241700 20009KT P6SM BKN035
     FM241900 21017G24KT P6SM BKN040=

USA.gov is the U.S. government's official web portal to all federal, state and local government web resources and services.